sensor_id;sensor_type;location;lat;lon;timestamp;pressure;altitude;pressure_sealevel;temperature;humidity
2339;BME280;1180;51.438;6.978;2023-10-08T00:01:19;100927.47;;;21.21;69.36
2339;BME280;1180;51.438;6.978;2023-10-08T00:03:47;100938.72;;;21.22;70.11
2339;BME280;1180;51.438;6.978;2023-10-08T00:06:24;100927.72;;;21.18;69.57
2339;BME280;1180;51.438;6.978;2023-10-08T00:08:50;100929.34;;;21.19;69.58
2339;BME280;1180;51.438;6.978;2023-10-08T00:11:19;100937.34;;;21.18;69.39
2339;BME280;1180;51.438;6.978;2023-10-08T00:13:48;100947.78;;;21.18;69.73
2339;BME280;1180;51.438;6.978;2023-10-08T00:16:14;100937.06;;;21.21;69.61
2339;BME280;1180;51.438;6.978;2023-10-08T00:18:43;100945.94;;;21.28;69.41
2339;BME280;1180;51.438;6.978;2023-10-08T00:21:17;100930.75;;;21.24;69.31
2339;BME280;1180;51.438;6.978;2023-10-08T00:23:45;100935.28;;;21.21;69.41
2339;BME280;1180;51.438;6.978;2023-10-08T00:26:23;100966.88;;;21.18;69.64
2339;BME280;1180;51.438;6.978;2023-10-08T00:28:56;100957.69;;;21.14;69.28
2339;BME280;1180;51.438;6.978;2023-10-08T00:31:23;100960.47;;;21.03;70.18
2339;BME280;1180;51.438;6.978;2023-10-08T00:33:57;100967.72;;;21.09;69.81
2339;BME280;1180;51.438;6.978;2023-10-08T00:36:23;100963.06;;;21.13;69.02
2339;BME280;1180;51.438;6.978;2023-10-08T00:38:52;100960.28;;;21.14;69.20
2339;BME280;1180;51.438;6.978;2023-10-08T00:41:25;100947.69;;;21.10;69.45
2339;BME280;1180;51.438;6.978;2023-10-08T00:43:56;100970.72;;;21.14;69.74
2339;BME280;1180;51.438;6.978;2023-10-08T00:46:24;100972.81;;;21.11;69.86
2339;BME280;1180;51.438;6.978;2023-10-08T00:49:23;100974.88;;;21.07;69.94
2339;BME280;1180;51.438;6.978;2023-10-08T00:52:04;100978.59;;;21.04;69.91
2339;BME280;1180;51.438;6.978;2023-10-08T00:54:34;100960.91;;;20.98;70.41
2339;BME280;1180;51.438;6.978;2023-10-08T00:57:16;100967.91;;;20.98;70.00
2339;BME280;1180;51.438;6.978;2023-10-08T00:59:47;100972.59;;;20.94;70.56
2339;BME280;1180;51.438;6.978;2023-10-08T01:02:15;100971.03;;;21.01;70.26
2339;BME280;1180;51.438;6.978;2023-10-08T01:04:45;100961.72;;;20.99;70.65
2339;BME280;1180;51.438;6.978;2023-10-08T01:07:12;100971.22;;;21.00;70.66
2339;BME280;1180;51.438;6.978;2023-10-08T01:09:42;100972.16;;;20.99;70.53
2339;BME280;1180;51.438;6.978;2023-10-08T01:14:48;100983.03;;;20.94;70.79
2339;BME280;1180;51.438;6.978;2023-10-08T01:17:16;100976.31;;;20.91;70.79
2339;BME280;1180;51.438;6.978;2023-10-08T01:19:47;100975.47;;;20.91;70.32
2339;BME280;1180;51.438;6.978;2023-10-08T01:22:16;100989.09;;;20.85;70.90
2339;BME280;1180;51.438;6.978;2023-10-08T01:24:45;100984.41;;;20.78;71.20
2339;BME280;1180;51.438;6.978;2023-10-08T01:27:15;100992.94;;;20.81;71.31
2339;BME280;1180;51.438;6.978;2023-10-08T01:29:46;101004.88;;;20.73;71.36
2339;BME280;1180;51.438;6.978;2023-10-08T01:32:12;100991.13;;;20.71;71.03
2339;BME280;1180;51.438;6.978;2023-10-08T01:34:42;100996.78;;;20.76;71.01
2339;BME280;1180;51.438;6.978;2023-10-08T01:37:15;100995.66;;;20.69;70.64
2339;BME280;1180;51.438;6.978;2023-10-08T01:39:45;100999.38;;;20.67;70.80
2339;BME280;1180;51.438;6.978;2023-10-08T01:42:14;100990.88;;;20.64;71.30
2339;BME280;1180;51.438;6.978;2023-10-08T01:44:49;100987.84;;;20.69;71.19
2339;BME280;1180;51.438;6.978;2023-10-08T01:47:16;100985.78;;;20.73;70.94
2339;BME280;1180;51.438;6.978;2023-10-08T01:49:43;100984.53;;;20.77;70.78
2339;BME280;1180;51.438;6.978;2023-10-08T01:52:10;100984.28;;;20.80;70.69
2339;BME280;1180;51.438;6.978;2023-10-08T01:54:43;100988.41;;;20.83;70.92
2339;BME280;1180;51.438;6.978;2023-10-08T01:57:10;100979.91;;;20.81;71.14
2339;BME280;1180;51.438;6.978;2023-10-08T01:59:37;100973.13;;;20.78;70.80
2339;BME280;1180;51.438;6.978;2023-10-08T02:02:04;100973.13;;;20.78;70.86
2339;BME280;1180;51.438;6.978;2023-10-08T02:04:32;100998.84;;;20.83;70.80
2339;BME280;1180;51.438;6.978;2023-10-08T02:06:59;100992.34;;;20.77;70.46
2339;BME280;1180;51.438;6.978;2023-10-08T02:09:26;100988.50;;;20.71;70.93
2339;BME280;1180;51.438;6.978;2023-10-08T02:11:52;100992.38;;;20.67;71.17
2339;BME280;1180;51.438;6.978;2023-10-08T02:14:22;100988.94;;;20.67;71.07
2339;BME280;1180;51.438;6.978;2023-10-08T02:16:49;100982.50;;;20.61;71.35
2339;BME280;1180;51.438;6.978;2023-10-08T02:19:20;100991.97;;;20.62;71.11
2339;BME280;1180;51.438;6.978;2023-10-08T02:21:52;100977.28;;;20.61;71.26
2339;BME280;1180;51.438;6.978;2023-10-08T02:24:20;100969.19;;;20.54;71.55
2339;BME280;1180;51.438;6.978;2023-10-08T02:26:47;100969.63;;;20.49;71.73
2339;BME280;1180;51.438;6.978;2023-10-08T02:29:13;100973.19;;;20.48;71.56
2339;BME280;1180;51.438;6.978;2023-10-08T02:31:42;100961.78;;;20.49;71.48
2339;BME280;1180;51.438;6.978;2023-10-08T02:34:09;100944.63;;;20.47;72.08
2339;BME280;1180;51.438;6.978;2023-10-08T02:36:36;100929.28;;;20.44;72.25
2339;BME280;1180;51.438;6.978;2023-10-08T02:39:07;100917.59;;;20.38;72.58
2339;BME280;1180;51.438;6.978;2023-10-08T02:41:51;100939.84;;;20.42;72.55
2339;BME280;1180;51.438;6.978;2023-10-08T02:44:18;100985.13;;;20.41;72.67
2339;BME280;1180;51.438;6.978;2023-10-08T02:46:48;100978.13;;;20.42;72.55
2339;BME280;1180;51.438;6.978;2023-10-08T02:49:19;100962.19;;;20.45;72.36
2339;BME280;1180;51.438;6.978;2023-10-08T02:51:54;100952.34;;;20.39;72.05
2339;BME280;1180;51.438;6.978;2023-10-08T02:54:22;100943.44;;;20.31;72.42
2339;BME280;1180;51.438;6.978;2023-10-08T02:57:05;100954.94;;;20.29;72.95
2339;BME280;1180;51.438;6.978;2023-10-08T02:59:39;100990.34;;;20.31;72.69
2339;BME280;1180;51.438;6.978;2023-10-08T03:02:11;100998.03;;;20.23;72.81
2339;BME280;1180;51.438;6.978;2023-10-08T03:04:45;101020.25;;;20.27;72.50
2339;BME280;1180;51.438;6.978;2023-10-08T03:07:14;100998.16;;;20.22;72.27
2339;BME280;1180;51.438;6.978;2023-10-08T03:09:51;101012.25;;;20.19;73.05
2339;BME280;1180;51.438;6.978;2023-10-08T03:12:28;101019.84;;;20.22;72.99
2339;BME280;1180;51.438;6.978;2023-10-08T03:14:58;101018.84;;;20.13;72.95
2339;BME280;1180;51.438;6.978;2023-10-08T03:17:39;100997.06;;;20.14;72.98
2339;BME280;1180;51.438;6.978;2023-10-08T03:20:15;101031.75;;;20.15;73.54
2339;BME280;1180;51.438;6.978;2023-10-08T03:22:56;101031.31;;;20.10;73.63
2339;BME280;1180;51.438;6.978;2023-10-08T03:25:23;101040.94;;;20.09;73.07
2339;BME280;1180;51.438;6.978;2023-10-08T03:27:50;101039.03;;;20.11;72.84
2339;BME280;1180;51.438;6.978;2023-10-08T03:30:15;101023.22;;;20.13;72.76
2339;BME280;1180;51.438;6.978;2023-10-08T03:32:42;101015.84;;;20.08;73.17
2339;BME280;1180;51.438;6.978;2023-10-08T03:35:16;101022.81;;;20.08;73.82
2339;BME280;1180;51.438;6.978;2023-10-08T03:37:48;101003.34;;;20.12;73.45
2339;BME280;1180;51.438;6.978;2023-10-08T03:40:15;101007.75;;;20.11;73.85
2339;BME280;1180;51.438;6.978;2023-10-08T03:42:56;101004.56;;;20.08;73.28
2339;BME280;1180;51.438;6.978;2023-10-08T03:45:21;100987.19;;;20.08;72.83
2339;BME280;1180;51.438;6.978;2023-10-08T03:48:06;100978.91;;;20.03;73.51
2339;BME280;1180;51.438;6.978;2023-10-08T03:50:33;100986.03;;;20.01;73.75
2339;BME280;1180;51.438;6.978;2023-10-08T03:53:07;100979.19;;;20.00;73.44
2339;BME280;1180;51.438;6.978;2023-10-08T03:55:39;100991.41;;;19.99;73.05
2339;BME280;1180;51.438;6.978;2023-10-08T03:58:08;100985.25;;;20.00;73.23
2339;BME280;1180;51.438;6.978;2023-10-08T04:00:53;100975.22;;;20.05;73.27
2339;BME280;1180;51.438;6.978;2023-10-08T04:03:34;101000.56;;;19.94;73.14
2339;BME280;1180;51.438;6.978;2023-10-08T04:06:29;101025.88;;;19.82;73.25
2339;BME280;1180;51.438;6.978;2023-10-08T04:09:05;101023.53;;;19.78;73.02
2339;BME280;1180;51.438;6.978;2023-10-08T04:11:34;100991.22;;;19.81;72.75
2339;BME280;1180;51.438;6.978;2023-10-08T04:14:15;101019.84;;;19.81;73.07
2339;BME280;1180;51.438;6.978;2023-10-08T04:16:44;101038.09;;;19.81;73.05
2339;BME280;1180;51.438;6.978;2023-10-08T04:19:11;101034.91;;;19.77;73.38
2339;BME280;1180;51.438;6.978;2023-10-08T04:21:37;101027.25;;;19.76;72.36
2339;BME280;1180;51.438;6.978;2023-10-08T04:24:03;101037.47;;;19.68;72.68
2339;BME280;1180;51.438;6.978;2023-10-08T04:26:34;101025.84;;;19.72;72.57
2339;BME280;1180;51.438;6.978;2023-10-08T04:29:01;101027.78;;;19.80;72.54
2339;BME280;1180;51.438;6.978;2023-10-08T04:31:34;101015.47;;;19.82;72.80
2339;BME280;1180;51.438;6.978;2023-10-08T04:34:09;101018.47;;;19.77;72.63
2339;BME280;1180;51.438;6.978;2023-10-08T04:36:48;101025.84;;;19.72;72.14
2339;BME280;1180;51.438;6.978;2023-10-08T04:39:20;101018.03;;;19.72;72.21
2339;BME280;1180;51.438;6.978;2023-10-08T04:41:58;101032.53;;;19.65;72.23
2339;BME280;1180;51.438;6.978;2023-10-08T04:44:31;101035.56;;;19.70;71.82
2339;BME280;1180;51.438;6.978;2023-10-08T04:46:57;101050.94;;;19.73;72.22
2339;BME280;1180;51.438;6.978;2023-10-08T04:49:31;101048.03;;;19.66;72.40
2339;BME280;1180;51.438;6.978;2023-10-08T04:52:03;101012.53;;;19.65;72.77
2339;BME280;1180;51.438;6.978;2023-10-08T04:54:44;101016.53;;;19.69;73.26
2339;BME280;1180;51.438;6.978;2023-10-08T04:57:20;101021.16;;;19.66;73.36
2339;BME280;1180;51.438;6.978;2023-10-08T04:59:51;101037.19;;;19.61;73.66
2339;BME280;1180;51.438;6.978;2023-10-08T05:02:19;101044.75;;;19.64;73.98
2339;BME280;1180;51.438;6.978;2023-10-08T05:04:50;101048.31;;;19.63;74.20
2339;BME280;1180;51.438;6.978;2023-10-08T05:07:42;101076.09;;;19.62;74.10
2339;BME280;1180;51.438;6.978;2023-10-08T05:10:11;101066.09;;;19.58;74.17
2339;BME280;1180;51.438;6.978;2023-10-08T05:12:57;101090.50;;;19.57;73.93
2339;BME280;1180;51.438;6.978;2023-10-08T05:15:28;101077.69;;;19.54;74.36
2339;BME280;1180;51.438;6.978;2023-10-08T05:18:07;101080.56;;;19.51;74.72
2339;BME280;1180;51.438;6.978;2023-10-08T05:20:39;101081.03;;;19.56;74.31
2339;BME280;1180;51.438;6.978;2023-10-08T05:23:14;101089.47;;;19.48;74.17
2339;BME280;1180;51.438;6.978;2023-10-08T05:25:58;101093.66;;;19.39;74.22
2339;BME280;1180;51.438;6.978;2023-10-08T05:28:39;101088.56;;;19.38;74.39
2339;BME280;1180;51.438;6.978;2023-10-08T05:31:33;101072.59;;;19.42;73.89
2339;BME280;1180;51.438;6.978;2023-10-08T05:34:18;101073.97;;;19.46;74.20
2339;BME280;1180;51.438;6.978;2023-10-08T05:36:48;101087.94;;;19.45;73.56
2339;BME280;1180;51.438;6.978;2023-10-08T05:39:26;101073.00;;;19.47;73.93
2339;BME280;1180;51.438;6.978;2023-10-08T05:41:58;101054.53;;;19.51;73.51
2339;BME280;1180;51.438;6.978;2023-10-08T05:44:46;101047.50;;;19.41;74.07
2339;BME280;1180;51.438;6.978;2023-10-08T05:47:31;101045.16;;;19.38;73.97
2339;BME280;1180;51.438;6.978;2023-10-08T05:49:57;101040.66;;;19.40;74.15
2339;BME280;1180;51.438;6.978;2023-10-08T05:52:41;101050.38;;;19.38;74.13
2339;BME280;1180;51.438;6.978;2023-10-08T05:55:30;101064.19;;;19.39;74.00
2339;BME280;1180;51.438;6.978;2023-10-08T05:58:05;101058.69;;;19.32;74.33
2339;BME280;1180;51.438;6.978;2023-10-08T06:00:50;101063.66;;;19.35;74.58
2339;BME280;1180;51.438;6.978;2023-10-08T06:03:16;101076.06;;;19.31;74.90
2339;BME280;1180;51.438;6.978;2023-10-08T06:06:02;101077.81;;;19.21;75.29
2339;BME280;1180;51.438;6.978;2023-10-08T06:08:47;101083.59;;;19.25;75.65
2339;BME280;1180;51.438;6.978;2023-10-08T06:11:47;101065.13;;;19.28;75.65
2339;BME280;1180;51.438;6.978;2023-10-08T06:14:32;101061.31;;;19.32;75.32
2339;BME280;1180;51.438;6.978;2023-10-08T06:17:16;101079.09;;;19.27;75.57
2339;BME280;1180;51.438;6.978;2023-10-08T06:20:11;101100.53;;;19.19;75.72
2339;BME280;1180;51.438;6.978;2023-10-08T06:22:42;101083.72;;;19.23;75.88
2339;BME280;1180;51.438;6.978;2023-10-08T06:25:07;101087.84;;;19.26;76.01
2339;BME280;1180;51.438;6.978;2023-10-08T06:27:43;101110.44;;;19.25;76.02
2339;BME280;1180;51.438;6.978;2023-10-08T06:30:12;101121.69;;;19.26;76.17
2339;BME280;1180;51.438;6.978;2023-10-08T06:32:43;101109.47;;;19.26;76.33
2339;BME280;1180;51.438;6.978;2023-10-08T06:35:09;101111.53;;;19.23;76.71
2339;BME280;1180;51.438;6.978;2023-10-08T06:37:43;101116.25;;;19.17;76.52
2339;BME280;1180;51.438;6.978;2023-10-08T06:40:08;101102.28;;;19.18;76.65
2339;BME280;1180;51.438;6.978;2023-10-08T06:42:54;101099.84;;;19.17;76.31
2339;BME280;1180;51.438;6.978;2023-10-08T06:45:22;101096.72;;;19.23;76.35
2339;BME280;1180;51.438;6.978;2023-10-08T06:47:47;101097.56;;;19.24;76.50
2339;BME280;1180;51.438;6.978;2023-10-08T06:50:15;101099.22;;;19.25;76.37
2339;BME280;1180;51.438;6.978;2023-10-08T06:52:41;101103.25;;;19.17;76.40
2339;BME280;1180;51.438;6.978;2023-10-08T06:55:09;101118.16;;;19.15;76.59
2339;BME280;1180;51.438;6.978;2023-10-08T06:57:37;101159.53;;;19.18;76.33
2339;BME280;1180;51.438;6.978;2023-10-08T07:00:04;101162.53;;;19.14;76.74
2339;BME280;1180;51.438;6.978;2023-10-08T07:02:37;101156.47;;;19.13;76.22
2339;BME280;1180;51.438;6.978;2023-10-08T07:05:05;101157.19;;;19.15;76.38
2339;BME280;1180;51.438;6.978;2023-10-08T07:07:34;101151.72;;;19.18;75.81
2339;BME280;1180;51.438;6.978;2023-10-08T07:10:05;101145.81;;;19.16;76.17
2339;BME280;1180;51.438;6.978;2023-10-08T07:12:35;101143.94;;;19.18;76.19
2339;BME280;1180;51.438;6.978;2023-10-08T07:15:01;101163.44;;;19.24;76.49
2339;BME280;1180;51.438;6.978;2023-10-08T07:17:30;101185.53;;;19.30;76.96
2339;BME280;1180;51.438;6.978;2023-10-08T07:20:06;101190.66;;;19.20;76.83
2339;BME280;1180;51.438;6.978;2023-10-08T07:22:38;101192.97;;;19.02;77.23
2339;BME280;1180;51.438;6.978;2023-10-08T07:25:05;101198.19;;;18.90;77.82
2339;BME280;1180;51.438;6.978;2023-10-08T07:27:33;101192.47;;;18.97;77.60
2339;BME280;1180;51.438;6.978;2023-10-08T07:30:03;101196.28;;;18.93;77.64
2339;BME280;1180;51.438;6.978;2023-10-08T07:32:39;101189.81;;;18.75;77.98
2339;BME280;1180;51.438;6.978;2023-10-08T07:35:05;101188.72;;;18.89;77.92
2339;BME280;1180;51.438;6.978;2023-10-08T07:37:45;101178.59;;;19.19;76.93
2339;BME280;1180;51.438;6.978;2023-10-08T07:40:12;101163.59;;;19.11;77.45
2339;BME280;1180;51.438;6.978;2023-10-08T07:42:38;101160.03;;;19.12;77.52
2339;BME280;1180;51.438;6.978;2023-10-08T07:45:04;101167.09;;;19.22;78.23
2339;BME280;1180;51.438;6.978;2023-10-08T07:47:30;101167.41;;;19.28;77.57
2339;BME280;1180;51.438;6.978;2023-10-08T07:49:56;101166.38;;;19.19;78.31
2339;BME280;1180;51.438;6.978;2023-10-08T07:52:21;101173.25;;;19.20;78.31
2339;BME280;1180;51.438;6.978;2023-10-08T07:54:47;101182.09;;;19.29;78.41
2339;BME280;1180;51.438;6.978;2023-10-08T07:57:13;101174.53;;;19.26;78.60
2339;BME280;1180;51.438;6.978;2023-10-08T07:59:43;101184.03;;;19.16;79.24
2339;BME280;1180;51.438;6.978;2023-10-08T08:02:11;101180.19;;;18.99;80.50
2339;BME280;1180;51.438;6.978;2023-10-08T08:04:41;101186.81;;;19.03;80.83
2339;BME280;1180;51.438;6.978;2023-10-08T08:07:11;101185.84;;;19.04;81.12
2339;BME280;1180;51.438;6.978;2023-10-08T08:09:45;101185.84;;;19.04;81.35
2339;BME280;1180;51.438;6.978;2023-10-08T08:12:23;101194.00;;;19.11;82.08
2339;BME280;1180;51.438;6.978;2023-10-08T08:14:50;101196.81;;;19.19;81.41
2339;BME280;1180;51.438;6.978;2023-10-08T08:17:17;101200.06;;;19.32;81.51
2339;BME280;1180;51.438;6.978;2023-10-08T08:19:45;101202.66;;;19.32;81.13
2339;BME280;1180;51.438;6.978;2023-10-08T08:22:13;101209.19;;;19.27;81.47
2339;BME280;1180;51.438;6.978;2023-10-08T08:24:46;101219.69;;;18.81;83.99
2339;BME280;1180;51.438;6.978;2023-10-08T08:27:12;101217.47;;;18.65;84.86
2339;BME280;1180;51.438;6.978;2023-10-08T08:29:50;101223.25;;;18.80;85.51
2339;BME280;1180;51.438;6.978;2023-10-08T08:32:24;101225.50;;;18.62;86.17
2339;BME280;1180;51.438;6.978;2023-10-08T08:34:49;101231.75;;;18.14;89.15
2339;BME280;1180;51.438;6.978;2023-10-08T08:37:19;101221.16;;;18.40;88.95
2339;BME280;1180;51.438;6.978;2023-10-08T08:39:51;101214.88;;;18.65;87.58
2339;BME280;1180;51.438;6.978;2023-10-08T08:42:21;101214.72;;;18.89;86.22
2339;BME280;1180;51.438;6.978;2023-10-08T08:44:48;101214.72;;;19.01;84.80
2339;BME280;1180;51.438;6.978;2023-10-08T08:47:17;101220.50;;;19.04;84.28
2339;BME280;1180;51.438;6.978;2023-10-08T08:49:44;101227.63;;;18.80;85.42
2339;BME280;1180;51.438;6.978;2023-10-08T08:52:10;101228.19;;;18.95;85.30
2339;BME280;1180;51.438;6.978;2023-10-08T08:54:36;101232.69;;;18.93;84.53
2339;BME280;1180;51.438;6.978;2023-10-08T08:57:03;101240.34;;;18.94;84.02
2339;BME280;1180;51.438;6.978;2023-10-08T08:59:30;101250.09;;;18.24;87.90
2339;BME280;1180;51.438;6.978;2023-10-08T09:01:59;101251.63;;;18.26;88.25
2339;BME280;1180;51.438;6.978;2023-10-08T09:04:31;101255.28;;;17.88;90.93
2339;BME280;1180;51.438;6.978;2023-10-08T09:07:01;101246.56;;;17.89;90.95
2339;BME280;1180;51.438;6.978;2023-10-08T09:09:35;101256.38;;;17.97;90.38
2339;BME280;1180;51.438;6.978;2023-10-08T09:12:05;101256.09;;;18.01;90.45
2339;BME280;1180;51.438;6.978;2023-10-08T09:14:30;101263.22;;;17.98;90.67
2339;BME280;1180;51.438;6.978;2023-10-08T09:16:57;101270.38;;;17.71;92.34
2339;BME280;1180;51.438;6.978;2023-10-08T09:19:24;101273.78;;;18.08;92.36
2339;BME280;1180;51.438;6.978;2023-10-08T09:24:25;101279.53;;;18.00;90.28
2339;BME280;1180;51.438;6.978;2023-10-08T09:26:52;101284.13;;;17.96;91.26
2339;BME280;1180;51.438;6.978;2023-10-08T09:29:17;101283.84;;;18.12;90.18
2339;BME280;1180;51.438;6.978;2023-10-08T09:31:52;101283.16;;;17.86;90.17
2339;BME280;1180;51.438;6.978;2023-10-08T09:34:21;101299.78;;;18.08;90.71
2339;BME280;1180;51.438;6.978;2023-10-08T09:36:48;101303.53;;;18.03;89.13
2339;BME280;1180;51.438;6.978;2023-10-08T09:39:15;101305.94;;;18.18;88.28
2339;BME280;1180;51.438;6.978;2023-10-08T09:41:50;101299.44;;;18.24;87.26
2339;BME280;1180;51.438;6.978;2023-10-08T09:44:18;101304.63;;;18.12;87.25
2339;BME280;1180;51.438;6.978;2023-10-08T09:46:49;101310.31;;;18.17;87.22
2339;BME280;1180;51.438;6.978;2023-10-08T09:49:21;101307.75;;;18.40;86.54
2339;BME280;1180;51.438;6.978;2023-10-08T09:51:50;101294.75;;;18.52;85.75
2339;BME280;1180;51.438;6.978;2023-10-08T09:54:31;101298.41;;;18.49;84.84
2339;BME280;1180;51.438;6.978;2023-10-08T09:57:03;101286.97;;;18.63;84.68
2339;BME280;1180;51.438;6.978;2023-10-08T09:59:33;101295.47;;;18.54;85.40
2339;BME280;1180;51.438;6.978;2023-10-08T10:02:00;101291.94;;;18.43;84.96
2339;BME280;1180;51.438;6.978;2023-10-08T10:04:30;101285.31;;;18.51;84.90
2339;BME280;1180;51.438;6.978;2023-10-08T10:06:57;101293.69;;;18.54;84.56
2339;BME280;1180;51.438;6.978;2023-10-08T10:09:26;101286.63;;;18.56;84.26
2339;BME280;1180;51.438;6.978;2023-10-08T10:11:54;101288.97;;;18.71;83.80
2339;BME280;1180;51.438;6.978;2023-10-08T10:14:23;101285.19;;;18.75;83.82
2339;BME280;1180;51.438;6.978;2023-10-08T10:19:36;101282.34;;;18.78;84.18
2339;BME280;1180;51.438;6.978;2023-10-08T10:22:01;101297.00;;;18.79;84.43
2339;BME280;1180;51.438;6.978;2023-10-08T10:24:33;101299.84;;;18.76;83.73
2339;BME280;1180;51.438;6.978;2023-10-08T10:27:15;101295.72;;;18.51;84.53
2339;BME280;1180;51.438;6.978;2023-10-08T10:29:42;101297.34;;;18.63;84.47
2339;BME280;1180;51.438;6.978;2023-10-08T10:32:11;101290.63;;;18.49;84.28
2339;BME280;1180;51.438;6.978;2023-10-08T10:34:39;101292.75;;;18.55;84.64
2339;BME280;1180;51.438;6.978;2023-10-08T10:37:04;101298.78;;;18.56;84.41
2339;BME280;1180;51.438;6.978;2023-10-08T10:39:55;101305.16;;;18.63;83.66
2339;BME280;1180;51.438;6.978;2023-10-08T10:42:21;101320.53;;;18.66;84.48
2339;BME280;1180;51.438;6.978;2023-10-08T10:44:49;101314.94;;;18.48;82.51
2339;BME280;1180;51.438;6.978;2023-10-08T10:47:16;101314.72;;;18.51;82.65
2339;BME280;1180;51.438;6.978;2023-10-08T10:49:46;101318.97;;;18.52;81.54
2339;BME280;1180;51.438;6.978;2023-10-08T10:52:28;101318.03;;;18.53;81.53
2339;BME280;1180;51.438;6.978;2023-10-08T10:54:59;101316.50;;;18.62;81.37
2339;BME280;1180;51.438;6.978;2023-10-08T10:57:25;101315.94;;;18.58;79.92
2339;BME280;1180;51.438;6.978;2023-10-08T11:00:02;101317.22;;;18.53;80.18
2339;BME280;1180;51.438;6.978;2023-10-08T11:02:44;101322.53;;;18.62;80.27
2339;BME280;1180;51.438;6.978;2023-10-08T11:05:15;101318.25;;;18.50;80.23
2339;BME280;1180;51.438;6.978;2023-10-08T11:07:46;101316.97;;;18.67;79.21
2339;BME280;1180;51.438;6.978;2023-10-08T11:10:12;101317.81;;;18.68;78.87
2339;BME280;1180;51.438;6.978;2023-10-08T11:12:42;101318.06;;;18.65;78.29
2339;BME280;1180;51.438;6.978;2023-10-08T11:15:18;101309.19;;;18.79;78.32
2339;BME280;1180;51.438;6.978;2023-10-08T11:17:44;101299.97;;;18.86;78.00
2339;BME280;1180;51.438;6.978;2023-10-08T11:20:26;101301.25;;;18.91;77.71
2339;BME280;1180;51.438;6.978;2023-10-08T11:22:51;101292.13;;;18.97;77.34
2339;BME280;1180;51.438;6.978;2023-10-08T11:25:23;101290.84;;;18.91;76.92
2339;BME280;1180;51.438;6.978;2023-10-08T11:27:56;101298.66;;;19.03;76.46
2339;BME280;1180;51.438;6.978;2023-10-08T11:30:34;101291.69;;;19.15;76.65
2339;BME280;1180;51.438;6.978;2023-10-08T11:33:01;101298.25;;;19.30;75.76
2339;BME280;1180;51.438;6.978;2023-10-08T11:35:27;101289.84;;;19.38;75.57
2339;BME280;1180;51.438;6.978;2023-10-08T11:37:59;101287.13;;;19.40;75.36
2339;BME280;1180;51.438;6.978;2023-10-08T11:40:27;101287.34;;;19.37;74.55
2339;BME280;1180;51.438;6.978;2023-10-08T11:43:13;101290.28;;;19.43;75.58
2339;BME280;1180;51.438;6.978;2023-10-08T11:45:42;101286.22;;;19.51;75.96
2339;BME280;1180;51.438;6.978;2023-10-08T11:48:14;101285.94;;;19.65;75.24
2339;BME280;1180;51.438;6.978;2023-10-08T11:50:42;101289.06;;;19.59;74.43
2339;BME280;1180;51.438;6.978;2023-10-08T11:53:08;101277.19;;;19.66;74.97
2339;BME280;1180;51.438;6.978;2023-10-08T11:55:37;101268.69;;;19.64;74.97
2339;BME280;1180;51.438;6.978;2023-10-08T11:58:07;101268.28;;;19.69;74.63
2339;BME280;1180;51.438;6.978;2023-10-08T12:00:41;101271.69;;;19.48;74.43
2339;BME280;1180;51.438;6.978;2023-10-08T12:03:15;101270.13;;;19.57;75.11
2339;BME280;1180;51.438;6.978;2023-10-08T12:05:49;101274.19;;;19.71;74.82
2339;BME280;1180;51.438;6.978;2023-10-08T12:08:23;101263.53;;;19.74;74.82
2339;BME280;1180;51.438;6.978;2023-10-08T12:10:50;101257.94;;;19.78;75.33
2339;BME280;1180;51.438;6.978;2023-10-08T12:13:19;101254.38;;;19.80;74.29
2339;BME280;1180;51.438;6.978;2023-10-08T12:15:54;101265.25;;;19.85;73.65
2339;BME280;1180;51.438;6.978;2023-10-08T12:18:38;101260.69;;;19.77;73.53
2339;BME280;1180;51.438;6.978;2023-10-08T12:21:09;101259.47;;;19.81;73.76
2339;BME280;1180;51.438;6.978;2023-10-08T12:23:40;101259.16;;;19.74;74.08
2339;BME280;1180;51.438;6.978;2023-10-08T12:26:09;101265.75;;;19.78;75.22
2339;BME280;1180;51.438;6.978;2023-10-08T12:28:35;101269.06;;;19.81;75.71
2339;BME280;1180;51.438;6.978;2023-10-08T12:31:02;101254.28;;;19.81;74.86
2339;BME280;1180;51.438;6.978;2023-10-08T12:33:29;101256.03;;;19.81;75.10
2339;BME280;1180;51.438;6.978;2023-10-08T12:35:55;101259.84;;;19.76;75.27
2339;BME280;1180;51.438;6.978;2023-10-08T12:38:22;101258.81;;;19.68;75.23
2339;BME280;1180;51.438;6.978;2023-10-08T12:40:49;101256.81;;;19.71;75.06
2339;BME280;1180;51.438;6.978;2023-10-08T12:43:24;101251.69;;;19.70;74.88
2339;BME280;1180;51.438;6.978;2023-10-08T12:45:53;101261.75;;;19.74;74.82
2339;BME280;1180;51.438;6.978;2023-10-08T12:48:27;101248.72;;;19.74;74.64
2339;BME280;1180;51.438;6.978;2023-10-08T12:50:54;101252.41;;;19.72;74.93
2339;BME280;1180;51.438;6.978;2023-10-08T12:53:24;101236.16;;;19.58;74.36
2339;BME280;1180;51.438;6.978;2023-10-08T12:55:53;101228.47;;;19.57;75.17
2339;BME280;1180;51.438;6.978;2023-10-08T12:58:23;101231.44;;;19.52;74.69
2339;BME280;1180;51.438;6.978;2023-10-08T13:00:55;101218.50;;;19.62;75.28
2339;BME280;1180;51.438;6.978;2023-10-08T13:03:28;101214.09;;;19.62;75.75
2339;BME280;1180;51.438;6.978;2023-10-08T13:05:57;101222.41;;;19.35;76.13
2339;BME280;1180;51.438;6.978;2023-10-08T13:08:36;101219.75;;;19.46;75.83
2339;BME280;1180;51.438;6.978;2023-10-08T13:11:02;101218.34;;;19.42;75.59
2339;BME280;1180;51.438;6.978;2023-10-08T13:13:35;101214.03;;;19.53;75.98
2339;BME280;1180;51.438;6.978;2023-10-08T13:16:02;101216.28;;;19.57;75.64
2339;BME280;1180;51.438;6.978;2023-10-08T13:18:34;101220.72;;;19.67;75.90
2339;BME280;1180;51.438;6.978;2023-10-08T13:21:02;101211.47;;;19.74;75.47
2339;BME280;1180;51.438;6.978;2023-10-08T13:23:28;101210.38;;;19.76;75.33
2339;BME280;1180;51.438;6.978;2023-10-08T13:25:54;101197.50;;;19.85;75.34
2339;BME280;1180;51.438;6.978;2023-10-08T13:28:21;101177.53;;;19.85;74.93
2339;BME280;1180;51.438;6.978;2023-10-08T13:30:50;101174.66;;;19.88;75.03
2339;BME280;1180;51.438;6.978;2023-10-08T13:33:19;101159.63;;;19.92;75.07
2339;BME280;1180;51.438;6.978;2023-10-08T13:35:45;101177.03;;;19.91;74.40
2339;BME280;1180;51.438;6.978;2023-10-08T13:38:10;101172.88;;;19.89;75.48
2339;BME280;1180;51.438;6.978;2023-10-08T13:40:39;101166.94;;;19.87;75.69